Time;durP1;ratioP1;P1;durP2;ratioP2;P2;SDS_P1;SDS_P2;PMS_P1;PMS_P2;Temp;Humidity;BMP_temperature;BMP_pressure;BME280_temperature;BME280_humidity;BME280_pressure;Samples;Min_cycle;Max_cycle;Signal;HPM_P1;HPM_P2
2022/03/08 00:01:20;;;;;;;17.17;9.68;;;0.50;70.30;;;;;;6223427;23;20021;-84
2022/03/08 00:04:06;;;;;;;15.40;8.95;;;0.50;70.70;;;;;;6199760;23;20052;-84
2022/03/08 00:06:34;;;;;;;18.63;9.18;;;0.40;70.50;;;;;;6226236;23;20095;-84
2022/03/08 00:09:01;;;;;;;16.30;8.63;;;0.40;70.90;;;;;;6199245;23;20103;-84
2022/03/08 00:11:30;;;;;;;16.80;9.90;;;0.40;70.60;;;;;;6198553;23;20017;-84
2022/03/08 00:13:59;;;;;;;16.45;8.55;;;0.40;71.00;;;;;;6216567;23;20104;-84
2022/03/08 00:16:26;;;;;;;18.88;8.93;;;0.40;70.90;;;;;;6217984;23;20036;-84
2022/03/08 00:18:53;;;;;;;17.88;9.70;;;0.30;71.00;;;;;;6218007;23;20064;-84
2022/03/08 00:21:21;;;;;;;22.92;9.30;;;0.30;70.70;;;;;;6217647;23;20516;-84
2022/03/08 00:24:05;;;;;;;17.88;9.52;;;0.20;70.80;;;;;;6193106;23;20018;-84
2022/03/08 00:26:47;;;;;;;18.70;9.60;;;0.20;70.90;;;;;;6217661;23;20031;-84
2022/03/08 00:29:16;;;;;;;17.17;8.75;;;0.20;71.00;;;;;;6190605;23;20040;-84
2022/03/08 00:31:45;;;;;;;15.77;9.07;;;0.10;70.60;;;;;;6191774;23;20021;-84
2022/03/08 00:34:14;;;;;;;14.52;9.73;;;0.10;71.30;;;;;;6192351;23;20044;-84
2022/03/08 00:36:43;;;;;;;14.95;8.50;;;0.10;70.70;;;;;;6217615;23;20044;-84
2022/03/08 00:39:11;;;;;;;16.08;8.52;;;0.00;70.70;;;;;;6216105;23;20292;-84
2022/03/08 00:41:43;;;;;;;16.70;8.52;;;0.00;71.00;;;;;;6217269;23;20029;-84
2022/03/08 00:44:17;;;;;;;15.02;8.70;;;-0.10;71.00;;;;;;6191579;23;20017;-84
2022/03/08 00:46:45;;;;;;;16.77;8.60;;;-0.10;71.00;;;;;;6216822;23;20063;-84
2022/03/08 00:49:16;;;;;;;16.10;8.80;;;-0.10;70.90;;;;;;6214964;23;20028;-84
2022/03/08 00:51:47;;;;;;;17.25;8.93;;;-0.20;71.20;;;;;;6190350;23;20018;-84
2022/03/08 00:54:24;;;;;;;15.82;8.90;;;-0.30;71.00;;;;;;6215762;23;20025;-84
2022/03/08 00:56:52;;;;;;;15.60;8.68;;;-0.30;71.10;;;;;;6215808;23;20024;-84
2022/03/08 00:59:23;;;;;;;16.73;8.30;;;-0.40;71.00;;;;;;6216188;23;20025;-84
2022/03/08 01:01:50;;;;;;;18.27;9.45;;;-0.40;70.80;;;;;;6215496;23;20108;-84
2022/03/08 01:04:17;;;;;;;17.23;9.55;;;-0.40;70.50;;;;;;6215251;23;20028;-84
2022/03/08 01:06:44;;;;;;;16.10;9.43;;;-0.50;71.50;;;;;;6216242;23;20047;-84
2022/03/08 01:09:24;;;;;;;13.20;7.97;;;-0.50;71.40;;;;;;6190152;23;20029;-84
2022/03/08 01:11:53;;;;;;;17.70;8.30;;;-0.60;71.60;;;;;;6189205;23;20025;-84
2022/03/08 01:14:29;;;;;;;18.33;8.60;;;-0.70;71.80;;;;;;6191189;23;20445;-84
2022/03/08 01:16:55;;;;;;;15.35;9.35;;;-0.90;71.50;;;;;;6216393;23;20021;-84
2022/03/08 01:19:28;;;;;;;15.23;8.13;;;-1.00;71.60;;;;;;6217782;23;20064;-84
2022/03/08 01:22:04;;;;;;;15.90;9.20;;;-1.10;71.30;;;;;;6191002;23;20047;-84
2022/03/08 01:24:40;;;;;;;18.08;9.60;;;-1.20;71.20;;;;;;6186764;23;20079;-84
2022/03/08 01:27:08;;;;;;;17.98;8.77;;;-1.20;71.10;;;;;;6215347;23;20021;-84
2022/03/08 01:29:39;;;;;;;17.13;9.70;;;-1.30;71.70;;;;;;6190951;23;20425;-84
2022/03/08 01:32:07;;;;;;;14.55;8.48;;;-1.30;72.30;;;;;;6215096;23;20032;-84
2022/03/08 01:34:41;;;;;;;18.20;9.18;;;-1.40;72.60;;;;;;6216905;23;20091;-85
2022/03/08 01:37:16;;;;;;;18.92;9.30;;;-1.40;72.20;;;;;;6214891;23;20021;-84
2022/03/08 01:39:43;;;;;;;16.45;9.27;;;-1.50;71.80;;;;;;6214884;23;20031;-84
2022/03/08 01:42:21;;;;;;;17.85;8.85;;;-1.50;72.70;;;;;;6216531;23;20032;-84
2022/03/08 01:44:51;;;;;;;15.13;8.52;;;-1.50;72.60;;;;;;6217782;23;20028;-84
2022/03/08 01:47:25;;;;;;;16.80;9.07;;;-1.50;72.60;;;;;;6191551;23;20025;-84
2022/03/08 01:49:53;;;;;;;15.10;9.00;;;-1.50;73.40;;;;;;6215857;23;20025;-84
2022/03/08 01:52:26;;;;;;;19.67;9.60;;;-1.70;75.20;;;;;;6216242;23;20029;-84
2022/03/08 01:54:58;;;;;;;15.40;8.85;;;-1.70;74.90;;;;;;6189905;23;20039;-84
2022/03/08 01:57:31;;;;;;;16.90;8.88;;;-1.80;75.20;;;;;;6193076;23;20025;-84
2022/03/08 02:00:11;;;;;;;15.52;8.82;;;-1.80;75.10;;;;;;6195777;23;20032;-84
2022/03/08 02:02:44;;;;;;;14.15;8.18;;;-1.90;75.10;;;;;;6194495;23;20701;-84
2022/03/08 02:05:26;;;;;;;19.40;9.18;;;-1.90;74.20;;;;;;6197388;23;20025;-84
2022/03/08 02:07:55;;;;;;;14.70;8.30;;;-1.90;74.20;;;;;;6198559;23;20029;-84
2022/03/08 02:10:27;;;;;;;17.33;9.55;;;-1.90;74.00;;;;;;6194623;23;20028;-84
2022/03/08 02:13:02;;;;;;;16.50;8.95;;;-1.90;74.40;;;;;;6196047;23;20582;-84
2022/03/08 02:15:35;;;;;;;18.13;9.05;;;-2.00;74.00;;;;;;6219017;23;20031;-84
2022/03/08 02:18:04;;;;;;;15.48;8.85;;;-2.00;74.90;;;;;;6192865;23;20442;-84
2022/03/08 02:20:47;;;;;;;;;;;;;;;;;;;;;
2022/03/08 02:23:25;;;;;;;18.80;9.38;;;-2.10;76.00;;;;;;6216779;23;20025;-83
2022/03/08 02:26:12;;;;;;;16.30;8.00;;;-2.20;76.10;;;;;;6193705;23;20033;-84
2022/03/08 02:29:09;;;;;;;;;;;;;;;;;;;;;
2022/03/08 02:31:56;;;;;;;14.43;8.85;;;-2.20;76.30;;;;;;6219689;23;20028;-84
2022/03/08 02:34:35;;;;;;;14.30;8.40;;;-2.10;76.60;;;;;;6194552;23;20064;-84
2022/03/08 02:37:21;;;;;;;16.40;8.80;;;-1.90;75.10;;;;;;6194125;23;20017;-83
2022/03/08 02:40:43;;;;;;;14.15;7.45;;;-1.90;74.60;;;;;;6107649;23;20026;-84
2022/03/08 02:43:12;;;;;;;14.23;8.25;;;-1.80;74.30;;;;;;6101892;23;20108;-84
2022/03/08 02:45:39;;;;;;;12.60;7.30;;;-1.70;74.50;;;;;;6127562;23;20044;-84
2022/03/08 02:48:34;;;;;;;14.65;7.38;;;-1.60;74.20;;;;;;6127956;23;20028;-84
2022/03/08 02:51:01;;;;;;;12.00;7.18;;;-1.50;73.80;;;;;;6127866;23;20026;-84
2022/03/08 02:53:30;;;;;;;13.45;7.15;;;-1.40;73.60;;;;;;6101736;23;20030;-85
2022/03/08 02:55:58;;;;;;;14.23;8.23;;;-1.40;73.50;;;;;;6100888;23;20110;-84
2022/03/08 02:58:34;;;;;;;14.70;8.10;;;-1.30;73.90;;;;;;6126478;23;20058;-84
2022/03/08 03:01:07;;;;;;;11.95;7.63;;;-1.20;73.10;;;;;;6122552;23;20831;-84
2022/03/08 03:03:35;;;;;;;17.55;8.02;;;-1.30;72.90;;;;;;6124775;23;20014;-84
2022/03/08 03:06:02;;;;;;;14.00;8.40;;;-1.30;72.60;;;;;;6100809;23;20124;-85
2022/03/08 03:08:54;;;;;;;13.43;8.45;;;-1.30;72.40;;;;;;6124169;23;20015;-84
2022/03/08 03:11:25;;;;;;;13.88;7.80;;;-1.40;72.70;;;;;;6186332;23;20287;-84
2022/03/08 03:13:55;;;;;;;11.43;6.97;;;-1.40;72.40;;;;;;6218193;23;20013;-85
2022/03/08 03:16:22;;;;;;;10.77;7.07;;;-1.40;72.50;;;;;;6192965;23;20452;-84
2022/03/08 03:18:49;;;;;;;12.55;7.40;;;-1.30;72.60;;;;;;6191479;23;20029;-84
2022/03/08 03:21:26;;;;;;;12.80;7.07;;;-1.30;72.30;;;;;;6219049;23;20029;-84
2022/03/08 03:24:01;;;;;;;14.63;7.75;;;-1.40;71.90;;;;;;6192204;23;20127;-84
2022/03/08 03:26:57;;;;;;;15.05;7.55;;;-1.40;72.20;;;;;;6218014;23;20021;-84
2022/03/08 03:29:25;;;;;;;15.10;7.72;;;-1.40;72.50;;;;;;6218010;23;20076;-84
2022/03/08 03:31:53;;;;;;;10.77;6.53;;;-1.30;72.10;;;;;;6219625;23;20017;-84
2022/03/08 03:34:21;;;;;;;10.95;6.30;;;-1.30;71.90;;;;;;6218818;23;20073;-84
2022/03/08 03:36:50;;;;;;;12.50;6.80;;;-1.40;71.80;;;;;;6191309;23;20021;-84
2022/03/08 03:39:22;;;;;;;19.60;7.82;;;-1.40;72.00;;;;;;6188888;23;20217;-84
2022/03/08 03:41:52;;;;;;;11.88;6.63;;;-1.50;72.30;;;;;;6193264;23;20950;-84
2022/03/08 03:44:19;;;;;;;13.38;7.63;;;-1.50;72.10;;;;;;6193992;23;20346;-84
2022/03/08 03:46:49;;;;;;;13.40;6.50;;;-1.50;72.10;;;;;;6192001;23;20036;-84
2022/03/08 03:49:23;;;;;;;13.75;8.10;;;-1.60;72.30;;;;;;6219419;23;20724;-84
2022/03/08 03:52:02;;;;;;;11.10;7.03;;;-1.70;72.70;;;;;;6219587;23;20041;-84
2022/03/08 03:54:57;;;;;;;12.55;6.90;;;-1.70;72.00;;;;;;6221510;23;20049;-84
2022/03/08 03:57:31;;;;;;;13.30;7.53;;;-1.80;72.20;;;;;;6218690;23;20040;-84
2022/03/08 03:59:58;;;;;;;12.35;7.53;;;-1.80;72.90;;;;;;6220924;23;20023;-84
2022/03/08 04:02:28;;;;;;;14.32;7.47;;;-1.90;73.60;;;;;;6194115;23;20013;-84
2022/03/08 04:05:00;;;;;;;12.82;7.95;;;-2.00;74.00;;;;;;6168750;23;20029;-84
2022/03/08 04:07:27;;;;;;;14.77;8.02;;;-2.00;74.40;;;;;;6218712;23;20759;-84
2022/03/08 04:09:54;;;;;;;12.02;6.75;;;-2.10;74.30;;;;;;6192852;23;20520;-84
2022/03/08 04:12:22;;;;;;;16.48;8.82;;;-2.20;74.20;;;;;;6189677;23;20021;-84
2022/03/08 04:15:01;;;;;;;15.73;8.45;;;-2.20;74.90;;;;;;6218479;23;20025;-84
2022/03/08 04:17:30;;;;;;;13.68;8.38;;;-2.30;74.70;;;;;;6218357;23;20096;-84
2022/03/08 04:20:07;;;;;;;14.13;8.05;;;-2.30;74.50;;;;;;6189698;23;20523;-84
2022/03/08 04:22:33;;;;;;;14.38;8.77;;;-2.40;75.10;;;;;;6218548;23;20736;-84
2022/03/08 04:25:04;;;;;;;13.05;8.02;;;-2.40;74.20;;;;;;6217325;23;20029;-84
2022/03/08 04:27:31;;;;;;;13.82;7.63;;;-2.50;74.20;;;;;;6191323;23;20964;-84
2022/03/08 04:29:57;;;;;;;13.25;8.07;;;-2.50;74.60;;;;;;6190751;23;20089;-84
2022/03/08 04:32:25;;;;;;;12.77;7.50;;;-2.50;74.40;;;;;;6216494;23;20524;-84
2022/03/08 04:35:06;;;;;;;12.43;7.28;;;-2.60;75.40;;;;;;6175545;23;20165;-84
2022/03/08 04:37:38;;;;;;;15.35;8.07;;;-2.60;74.70;;;;;;6190338;23;20423;-84
2022/03/08 04:40:14;;;;;;;12.65;7.43;;;-2.60;74.20;;;;;;6217651;23;20136;-84
2022/03/08 04:42:42;;;;;;;15.15;7.65;;;-2.70;75.00;;;;;;6189883;23;20017;-84
2022/03/08 04:45:11;;;;;;;15.25;8.25;;;-2.70;75.10;;;;;;6217484;23;20141;-84
2022/03/08 04:47:40;;;;;;;15.23;8.02;;;-2.70;75.00;;;;;;6190696;23;20017;-84
2022/03/08 04:50:11;;;;;;;13.95;8.15;;;-2.80;75.20;;;;;;6215050;23;20016;-84
2022/03/08 04:52:42;;;;;;;15.00;8.30;;;-2.80;75.10;;;;;;6217098;23;20021;-84
2022/03/08 04:55:10;;;;;;;12.20;7.97;;;-2.70;76.60;;;;;;6190097;23;20021;-84
2022/03/08 04:57:37;;;;;;;13.80;7.63;;;-2.80;75.50;;;;;;6191024;23;20056;-84
2022/03/08 05:00:16;;;;;;;12.88;7.10;;;-2.80;75.80;;;;;;6215915;23;20104;-83
2022/03/08 05:02:47;;;;;;;13.13;8.00;;;-2.80;75.90;;;;;;6190476;23;20439;-83
2022/03/08 05:05:17;;;;;;;14.85;7.50;;;-2.80;75.40;;;;;;6217250;23;20047;-84
2022/03/08 05:07:44;;;;;;;11.70;6.70;;;-2.80;75.40;;;;;;6190934;23;20108;-83
2022/03/08 05:10:15;;;;;;;11.90;6.82;;;-2.80;75.50;;;;;;6217168;23;20052;-84
2022/03/08 05:12:42;;;;;;;14.27;7.43;;;-2.80;75.40;;;;;;6216974;23;20057;-84
2022/03/08 05:15:16;;;;;;;17.27;7.28;;;-2.80;75.70;;;;;;6189688;23;20504;-84
2022/03/08 05:17:42;;;;;;;12.43;7.68;;;-2.70;75.50;;;;;;6217896;23;20340;-84
2022/03/08 05:20:11;;;;;;;12.88;7.20;;;-2.70;75.10;;;;;;6218006;23;20029;-84
2022/03/08 05:22:38;;;;;;;11.45;6.85;;;-2.70;75.60;;;;;;6216790;23;20029;-84
2022/03/08 05:25:05;;;;;;;11.52;6.55;;;-2.70;76.00;;;;;;6186447;23;20068;-84
2022/03/08 05:27:34;;;;;;;12.25;7.22;;;-2.80;75.90;;;;;;6188236;23;20103;-84
2022/03/08 05:30:05;;;;;;;9.95;6.05;;;-2.80;75.60;;;;;;6186267;23;20021;-83
2022/03/08 05:32:33;;;;;;;17.08;7.22;;;-2.80;75.60;;;;;;6186457;23;20061;-83
2022/03/08 05:35:09;;;;;;;12.40;6.45;;;-2.80;75.50;;;;;;6187448;23;20040;-84
2022/03/08 05:37:46;;;;;;;12.52;7.00;;;-2.80;75.70;;;;;;6189618;23;20025;-84
2022/03/08 05:40:19;;;;;;;12.23;7.28;;;-2.80;75.80;;;;;;6190633;23;20050;-84
2022/03/08 05:42:49;;;;;;;12.15;6.90;;;-2.60;76.00;;;;;;6189519;23;20098;-84
2022/03/08 05:45:22;;;;;;;12.02;6.22;;;-2.60;75.30;;;;;;6188190;23;20030;-84
2022/03/08 05:47:59;;;;;;;12.23;6.47;;;-2.50;74.80;;;;;;6186648;23;20012;-84
2022/03/08 05:50:29;;;;;;;12.63;6.80;;;-2.50;74.80;;;;;;6188319;23;20052;-84
2022/03/08 05:53:03;;;;;;;11.20;6.07;;;-2.60;74.70;;;;;;6190812;23;20558;-84
2022/03/08 05:55:38;;;;;;;13.15;7.35;;;-2.60;74.60;;;;;;6194144;23;20143;-84
2022/03/08 05:58:19;;;;;;;15.45;7.30;;;-2.50;74.90;;;;;;6155142;23;20030;-84
2022/03/08 06:00:56;;;;;;;;;;;-2.50;74.30;;;;;;6196883;23;20091;-84
2022/03/08 06:03:22;;;;;;;11.85;6.28;;;-2.50;74.30;;;;;;6195973;23;20793;-84
2022/03/08 06:05:52;;;;;;;11.35;6.20;;;-2.60;74.30;;;;;;6186673;23;20033;-84
2022/03/08 06:08:22;;;;;;;11.75;6.60;;;-2.60;74.60;;;;;;6186826;23;20017;-84
2022/03/08 06:10:56;;;;;;;13.05;6.70;;;-2.60;74.50;;;;;;6187254;23;20032;-84
2022/03/08 06:13:23;;;;;;;9.98;6.15;;;-2.50;74.90;;;;;;6187465;23;20029;-84
2022/03/08 06:15:59;;;;;;;10.00;6.05;;;-2.50;75.30;;;;;;6186926;23;20465;-84
2022/03/08 06:18:31;;;;;;;9.65;6.00;;;-2.30;74.70;;;;;;6189302;23;20112;-84
2022/03/08 06:21:00;;;;;;;11.15;6.30;;;-2.20;74.30;;;;;;6190833;23;20028;-84
2022/03/08 06:23:42;;;;;;;11.07;6.07;;;-2.20;74.00;;;;;;6181101;22;20151;31
2022/03/08 06:26:09;;;;;;;11.05;6.43;;;-2.20;73.80;;;;;;6182251;23;20120;-87
2022/03/08 06:28:43;;;;;;;11.55;6.28;;;-2.20;73.70;;;;;;6158336;23;20022;-88
2022/03/08 06:31:10;;;;;;;12.90;6.57;;;-2.20;73.70;;;;;;6160183;23;20018;-87
2022/03/08 06:33:40;;;;;;;12.65;6.20;;;-2.00;73.60;;;;;;6159849;23;20030;-89
2022/03/08 06:36:12;;;;;;;9.93;6.00;;;-1.90;73.00;;;;;;6159751;23;20034;-88
2022/03/08 06:38:38;;;;;;;10.40;5.93;;;-1.80;72.60;;;;;;6161330;23;20025;-88
2022/03/08 06:41:05;;;;;;;10.93;6.60;;;-1.80;72.50;;;;;;6160527;23;20101;-88
2022/03/08 06:43:32;;;;;;;10.02;6.57;;;-1.70;72.60;;;;;;6157973;23;20018;-89
2022/03/08 06:46:08;;;;;;;9.98;6.10;;;-1.70;72.30;;;;;;6158025;23;20105;-86
2022/03/08 06:48:37;;;;;;;10.38;6.18;;;-1.70;72.10;;;;;;6157976;23;20014;-86
2022/03/08 06:51:09;;;;;;;14.70;6.22;;;-1.60;72.10;;;;;;6157958;23;20775;-88
2022/03/08 06:53:36;;;;;;;12.02;6.82;;;-1.50;72.10;;;;;;6158900;23;20022;-87
2022/03/08 06:56:03;;;;;;;12.77;6.53;;;-1.50;72.00;;;;;;6158914;23;20109;-87
2022/03/08 06:58:34;;;;;;;18.58;8.05;;;-1.50;72.20;;;;;;6157748;23;20017;-86
2022/03/08 07:01:01;;;;;;;15.10;6.95;;;-1.50;72.80;;;;;;6158833;23;20085;-86
2022/03/08 07:03:31;;;;;;;11.05;6.05;;;-1.30;72.10;;;;;;6158832;23;20018;-85
2022/03/08 07:05:58;;;;;;;9.60;5.75;;;-1.20;71.90;;;;;;6158075;23;20022;-85
2022/03/08 07:08:37;;;;;;;12.65;6.28;;;-1.10;71.40;;;;;;6158369;23;20073;-85
2022/03/08 07:11:10;;;;;;;;;;;-1.00;71.20;;;;;;6160085;23;20018;-86
2022/03/08 07:13:40;;;;;;;11.38;6.25;;;-0.90;70.60;;;;;;6157412;23;19924;-86
2022/03/08 07:16:07;;;;;;;10.57;6.10;;;-0.70;70.30;;;;;;6158352;23;20022;-86
2022/03/08 07:18:34;;;;;;;11.48;6.45;;;-0.60;69.60;;;;;;6157210;23;20045;-86
2022/03/08 07:21:04;;;;;;;11.43;6.40;;;-0.50;69.40;;;;;;6156750;23;20018;-86
2022/03/08 07:23:32;;;;;;;9.88;6.00;;;-0.40;69.60;;;;;;6134631;23;20057;-86
2022/03/08 07:25:59;;;;;;;10.73;6.28;;;-0.30;69.00;;;;;;6187354;23;20081;-87
2022/03/08 07:28:27;;;;;;;11.40;5.93;;;-0.20;69.00;;;;;;6189501;23;20072;-88
2022/03/08 07:31:00;;;;;;;11.30;6.88;;;-0.10;68.00;;;;;;6189475;23;20085;-87
2022/03/08 07:33:28;;;;;;;11.02;6.70;;;0.10;66.90;;;;;;6188351;23;20109;-87
2022/03/08 07:36:03;;;;;;;10.35;6.55;;;0.20;67.10;;;;;;6190325;23;20121;-87
2022/03/08 07:38:31;;;;;;;8.75;5.90;;;0.20;67.10;;;;;;6192092;23;20025;-86
2022/03/08 07:41:05;;;;;;;12.98;6.47;;;0.40;66.50;;;;;;6190128;23;20097;-86
2022/03/08 07:43:41;;;;;;;14.25;5.97;;;0.40;66.40;;;;;;6190947;23;20073;-87
2022/03/08 07:46:09;;;;;;;11.63;6.00;;;0.60;65.40;;;;;;6190159;23;20093;-87
2022/03/08 07:48:37;;;;;;;9.20;6.10;;;0.70;65.30;;;;;;6190748;23;20801;-86
2022/03/08 07:51:05;;;;;;;10.63;5.80;;;0.80;64.60;;;;;;6190539;23;20022;-86
2022/03/08 07:53:32;;;;;;;10.40;6.25;;;0.90;64.40;;;;;;6189187;23;20029;-86
2022/03/08 07:55:59;;;;;;;10.77;5.60;;;1.00;63.60;;;;;;6191728;23;20010;-86
2022/03/08 07:58:26;;;;;;;10.23;5.78;;;1.10;64.10;;;;;;6190102;23;20023;-86
2022/03/08 08:00:55;;;;;;;9.02;5.90;;;1.20;63.20;;;;;;6190061;23;20076;-86
2022/03/08 08:03:23;;;;;;;9.85;5.30;;;1.30;62.60;;;;;;6193735;23;20825;-86
2022/03/08 08:05:51;;;;;;;12.32;5.80;;;1.50;61.50;;;;;;6198697;23;20010;-86
2022/03/08 08:08:18;;;;;;;9.95;5.57;;;1.60;60.10;;;;;;6209609;23;20002;-84
2022/03/08 08:10:45;;;;;;;16.33;6.22;;;1.70;61.40;;;;;;6211699;23;20018;-86
2022/03/08 08:13:12;;;;;;;9.80;5.43;;;1.80;61.20;;;;;;6214470;23;20010;-83
2022/03/08 08:15:39;;;;;;;10.00;5.35;;;1.90;59.70;;;;;;6216430;23;19994;-83
2022/03/08 08:18:12;;;;;;;11.10;5.38;;;2.00;59.60;;;;;;6213794;23;20029;-85
2022/03/08 08:20:39;;;;;;;8.07;5.10;;;2.20;59.70;;;;;;6196120;23;20018;-86
2022/03/08 08:23:06;;;;;;;9.13;5.15;;;2.30;59.00;;;;;;6195246;23;20017;-86
2022/03/08 08:25:34;;;;;;;11.63;5.70;;;2.60;59.00;;;;;;6159460;23;20109;-86
2022/03/08 08:28:01;;;;;;;11.20;5.63;;;2.90;56.40;;;;;;6160147;23;20026;-86
2022/03/08 08:30:28;;;;;;;7.97;5.18;;;3.30;57.10;;;;;;6158100;23;20025;-86
2022/03/08 08:32:55;;;;;;;7.40;4.72;;;3.70;54.20;;;;;;6159686;23;20138;-87
2022/03/08 08:35:22;;;;;;;8.75;5.00;;;4.00;53.80;;;;;;6158770;23;20053;-86
2022/03/08 08:37:49;;;;;;;7.28;5.18;;;4.30;53.20;;;;;;6158487;23;20029;-86
2022/03/08 08:40:16;;;;;;;15.57;5.20;;;4.70;52.50;;;;;;6158831;23;20451;-86
2022/03/08 08:42:43;;;;;;;8.25;4.97;;;4.90;52.40;;;;;;6159143;23;20097;-86
2022/03/08 08:45:10;;;;;;;7.55;4.75;;;5.00;51.60;;;;;;6158292;23;20025;-85
2022/03/08 08:47:37;;;;;;;10.38;4.82;;;5.30;50.60;;;;;;6158384;23;20471;-86
2022/03/08 08:50:05;;;;;;;8.85;5.10;;;5.00;50.00;;;;;;6160756;23;20029;-85
2022/03/08 08:52:31;;;;;;;9.60;5.25;;;5.50;50.60;;;;;;6140863;23;20028;-85
2022/03/08 08:54:58;;;;;;;9.10;4.82;;;5.40;48.80;;;;;;6158462;23;20525;-85
2022/03/08 08:57:25;;;;;;;11.32;5.00;;;5.80;49.30;;;;;;6163131;23;20022;-86
2022/03/08 08:59:52;;;;;;;8.30;4.75;;;5.90;48.40;;;;;;6164152;23;20014;-86
2022/03/08 09:02:19;;;;;;;7.85;4.78;;;6.00;48.40;;;;;;6161267;23;20077;-85
2022/03/08 09:04:46;;;;;;;7.72;4.50;;;6.00;48.40;;;;;;6155389;23;20465;-86
2022/03/08 09:07:13;;;;;;;6.80;4.50;;;6.50;46.20;;;;;;6156669;23;20106;-86
2022/03/08 09:09:40;;;;;;;7.95;4.82;;;6.90;47.60;;;;;;6157552;23;20510;-85
2022/03/08 09:12:07;;;;;;;8.02;4.47;;;7.20;44.90;;;;;;6158231;23;20426;-87
2022/03/08 09:14:34;;;;;;;8.35;4.60;;;7.30;44.70;;;;;;6152818;23;20084;-86
2022/03/08 09:17:00;;;;;;;9.05;4.40;;;7.50;44.10;;;;;;6158322;23;20456;-86
2022/03/08 09:19:27;;;;;;;7.18;4.32;;;8.00;45.30;;;;;;6157235;23;20049;-85
2022/03/08 09:21:54;;;;;;;8.20;4.68;;;8.00;41.90;;;;;;6157124;23;20045;-87
2022/03/08 09:24:21;;;;;;;12.38;4.82;;;7.20;43.90;;;;;;6174112;23;20025;-87
2022/03/08 09:26:48;;;;;;;9.27;4.20;;;7.60;45.50;;;;;;6219034;23;20051;-86
2022/03/08 09:29:15;;;;;;;8.65;4.40;;;8.10;43.70;;;;;;6219380;23;20462;-86
2022/03/08 09:31:42;;;;;;;6.93;4.35;;;8.30;42.40;;;;;;6192259;23;20020;-88
2022/03/08 09:34:09;;;;;;;12.13;4.80;;;8.00;43.00;;;;;;6218447;23;20021;-87
2022/03/08 09:36:37;;;;;;;8.70;4.45;;;8.30;42.50;;;;;;6191182;23;20024;-87
2022/03/08 09:39:05;;;;;;;7.03;4.75;;;8.60;43.30;;;;;;6192503;23;20096;-88
2022/03/08 09:41:35;;;;;;;8.30;4.60;;;8.90;41.70;;;;;;6195278;23;20017;-88
2022/03/08 09:44:02;;;;;;;9.23;4.40;;;8.80;41.20;;;;;;6194801;23;20025;-87
2022/03/08 09:46:29;;;;;;;7.13;4.47;;;9.10;40.90;;;;;;6193031;23;20466;-86
2022/03/08 09:48:56;;;;;;;7.30;4.07;;;8.90;42.20;;;;;;6192600;23;20091;-87
2022/03/08 09:51:24;;;;;;;8.13;3.92;;;9.10;41.10;;;;;;6192702;23;20017;-87
2022/03/08 09:53:54;;;;;;;7.00;4.40;;;8.70;40.90;;;;;;6192753;23;20029;-88
2022/03/08 09:56:21;;;;;;;10.55;4.60;;;8.90;40.70;;;;;;6190610;23;20051;-87
2022/03/08 09:58:48;;;;;;;8.43;4.45;;;9.30;43.60;;;;;;6219331;23;20041;-87
2022/03/08 10:01:15;;;;;;;8.00;4.40;;;9.60;41.60;;;;;;6217624;23;20044;-85
2022/03/08 10:03:45;;;;;;;8.88;4.25;;;9.40;40.70;;;;;;6191957;23;20021;-87
2022/03/08 10:06:12;;;;;;;9.40;4.10;;;9.40;40.20;;;;;;6219089;23;20838;-87
2022/03/08 10:08:39;;;;;;;7.63;3.92;;;9.10;39.90;;;;;;6192487;23;20013;-87
2022/03/08 10:11:09;;;;;;;8.77;4.40;;;8.90;39.50;;;;;;6192552;23;20040;-87
2022/03/08 10:13:48;;;;;;;10.13;4.15;;;9.20;40.60;;;;;;6194486;23;20414;-87
2022/03/08 10:16:29;;;;;;;7.35;4.15;;;9.00;37.70;;;;;;6218876;23;20017;-87
2022/03/08 10:19:02;;;;;;;11.80;4.15;;;9.00;38.40;;;;;;6192961;23;20628;-87
2022/03/08 10:21:34;;;;;;;8.00;4.00;;;8.80;36.40;;;;;;6168412;23;20029;-88
2022/03/08 10:24:06;;;;;;;6.75;3.72;;;8.40;38.20;;;;;;6191337;23;20056;-87
2022/03/08 10:26:44;;;;;;;6.28;3.90;;;8.50;36.80;;;;;;6190916;23;20024;-86
2022/03/08 10:29:11;;;;;;;6.22;3.85;;;8.10;37.70;;;;;;6192091;23;20466;-88
2022/03/08 10:31:38;;;;;;;10.00;4.43;;;8.00;37.30;;;;;;6192068;23;20096;-87
2022/03/08 10:34:07;;;;;;;6.57;4.10;;;8.20;38.60;;;;;;6192493;23;20818;-88
2022/03/08 10:36:37;;;;;;;7.18;4.13;;;8.20;37.50;;;;;;6192415;23;20084;-87
2022/03/08 10:39:11;;;;;;;8.10;4.05;;;8.20;38.50;;;;;;6198748;23;20027;-86
2022/03/08 10:41:47;;;;;;;6.53;4.13;;;8.50;37.70;;;;;;6193709;23;20071;-86
2022/03/08 10:44:14;;;;;;;8.30;4.03;;;8.80;38.40;;;;;;6192067;23;20025;-88
2022/03/08 10:46:41;;;;;;;6.50;4.03;;;9.20;38.00;;;;;;6192532;23;20021;-86
2022/03/08 10:49:13;;;;;;;9.48;4.35;;;8.90;38.30;;;;;;6192111;23;20049;-88
2022/03/08 10:51:40;;;;;;;8.02;4.22;;;9.40;39.00;;;;;;6192258;23;20075;-86
2022/03/08 10:54:11;;;;;;;8.07;3.95;;;9.80;38.30;;;;;;6217715;23;20100;-87
2022/03/08 10:56:44;;;;;;;6.30;3.80;;;9.80;36.30;;;;;;6167387;23;20017;-87
2022/03/08 10:59:15;;;;;;;9.75;4.20;;;9.60;35.30;;;;;;6191671;23;20021;-87
2022/03/08 11:01:42;;;;;;;8.68;3.55;;;9.40;35.70;;;;;;6191463;23;20040;-87
2022/03/08 11:04:18;;;;;;;5.70;3.58;;;9.90;36.50;;;;;;6192986;23;20096;-88
2022/03/08 11:06:52;;;;;;;6.85;3.72;;;10.10;36.90;;;;;;6191684;23;20048;-87
2022/03/08 11:09:23;;;;;;;5.60;3.38;;;10.20;36.10;;;;;;6192483;23;20028;-88
2022/03/08 11:11:50;;;;;;;7.60;3.20;;;9.90;34.60;;;;;;6192255;23;20024;-87
2022/03/08 11:14:17;;;;;;;12.15;3.53;;;10.00;36.00;;;;;;6192090;23;20131;-87
2022/03/08 11:16:47;;;;;;;4.93;3.10;;;9.60;35.00;;;;;;6219227;23;20017;-87
2022/03/08 11:19:15;;;;;;;5.30;3.30;;;9.20;33.30;;;;;;6192838;23;20088;-88
2022/03/08 11:21:43;;;;;;;8.70;3.97;;;9.40;35.40;;;;;;6191146;23;20017;-88
2022/03/08 11:24:12;;;;;;;9.90;3.53;;;9.50;35.30;;;;;;6218461;23;20044;-88
2022/03/08 11:26:41;;;;;;;5.68;3.40;;;9.70;36.50;;;;;;6193465;23;20100;-87
2022/03/08 11:29:08;;;;;;;4.68;3.10;;;10.00;34.20;;;;;;6220353;23;20040;-86
2022/03/08 11:31:38;;;;;;;5.90;3.47;;;9.50;35.20;;;;;;6194619;23;20088;-86
2022/03/08 11:34:21;;;;;;;7.18;3.40;;;9.70;33.50;;;;;;6219263;23;20490;-86
2022/03/08 11:37:10;;;;;;;12.30;3.33;;;9.30;33.00;;;;;;6194396;23;20017;-87
2022/03/08 11:39:39;;;;;;;9.25;3.78;;;9.50;34.30;;;;;;6193714;23;20025;-89
2022/03/08 11:42:20;;;;;;;6.57;3.45;;;9.60;35.70;;;;;;6193483;23;20079;-86
2022/03/08 11:45:12;;;;;;;7.13;3.22;;;9.70;35.40;;;;;;6217752;23;20028;-86
2022/03/08 11:47:42;;;;;;;6.45;3.70;;;9.70;35.00;;;;;;6170211;23;20585;-86
2022/03/08 11:50:20;;;;;;;9.18;3.60;;;9.80;34.40;;;;;;6190653;23;20017;-86
2022/03/08 11:53:14;;;;;;;6.95;3.92;;;9.80;34.80;;;;;;6194159;23;20020;-86
2022/03/08 11:55:44;;;;;;;8.13;3.90;;;9.70;35.20;;;;;;6193400;23;20033;-86
2022/03/08 11:58:14;;;;;;;7.15;3.55;;;9.70;34.80;;;;;;6220849;23;20021;-86
2022/03/08 12:00:57;;;;;;;6.82;3.63;;;9.90;34.70;;;;;;6197161;23;20025;-86
2022/03/08 12:03:24;;;;;;;11.10;3.53;;;9.80;35.10;;;;;;6198274;23;20145;-87
2022/03/08 12:06:01;;;;;;;15.32;3.63;;;9.60;35.00;;;;;;6241287;22;20031;-85
2022/03/08 12:08:31;;;;;;;17.00;3.92;;;9.60;35.70;;;;;;6220281;23;20057;-85
2022/03/08 12:11:06;;;;;;;9.65;3.60;;;9.60;35.60;;;;;;6222271;23;20020;-84
2022/03/08 12:13:39;;;;;;;5.80;3.30;;;9.70;35.80;;;;;;6224110;22;20020;-85
2022/03/08 12:16:09;;;;;;;6.57;3.65;;;9.70;35.40;;;;;;6221960;23;20004;-86
2022/03/08 12:18:46;;;;;;;6.82;3.60;;;9.60;34.30;;;;;;6225479;23;20779;-88
2022/03/08 12:21:15;;;;;;;7.55;3.70;;;9.70;35.40;;;;;;6219633;23;20028;-87
2022/03/08 12:24:17;;;;;;;6.65;3.67;;;9.70;36.50;;;;;;6192955;23;20024;-87
2022/03/08 12:26:59;;;;;;;5.70;3.50;;;9.60;35.60;;;;;;6154925;23;20025;-88
2022/03/08 12:29:46;;;;;;;6.70;3.13;;;9.80;35.80;;;;;;6218805;23;20017;-87
2022/03/08 12:32:36;;;;;;;5.60;3.50;;;9.80;34.60;;;;;;6195642;23;20036;-87
2022/03/08 12:35:07;;;;;;;7.40;3.70;;;9.60;34.40;;;;;;6194199;23;20107;-87
2022/03/08 12:37:36;;;;;;;6.00;3.58;;;9.70;35.00;;;;;;6169244;23;20025;-87
2022/03/08 12:40:33;;;;;;;5.53;3.40;;;9.80;35.10;;;;;;6193765;23;20091;-88
2022/03/08 12:43:08;;;;;;;6.97;3.78;;;9.80;34.00;;;;;;6191122;23;20044;-88
2022/03/08 12:45:47;;;;;;;6.18;3.55;;;9.90;35.10;;;;;;6219882;23;20036;-87
2022/03/08 12:48:17;;;;;;;7.70;3.73;;;10.00;35.00;;;;;;6219527;23;20099;-86
2022/03/08 12:50:53;;;;;;;11.50;3.90;;;10.00;35.90;;;;;;6219676;23;20245;-86
2022/03/08 12:53:26;;;;;;;10.35;3.60;;;10.00;33.90;;;;;;6194393;23;20080;-86
2022/03/08 12:55:55;;;;;;;10.00;3.63;;;10.10;34.40;;;;;;6195625;23;20021;-87
2022/03/08 12:58:29;;;;;;;6.32;3.72;;;10.30;34.60;;;;;;6223209;23;20077;-85
2022/03/08 13:01:01;;;;;;;5.27;3.70;;;10.20;34.70;;;;;;6200937;23;20076;-86
2022/03/08 13:03:31;;;;;;;6.78;3.85;;;10.20;34.70;;;;;;6198991;23;20024;-86
2022/03/08 13:06:01;;;;;;;6.25;3.80;;;10.20;33.60;;;;;;6227405;23;20048;-87
2022/03/08 13:08:29;;;;;;;9.00;3.63;;;10.30;35.70;;;;;;6194355;23;20021;-87
2022/03/08 13:11:06;;;;;;;9.80;3.63;;;10.40;34.10;;;;;;6217155;23;20369;-87